Time;durP1;ratioP1;P1;durP2;ratioP2;P2;SDS_P1;SDS_P2;PMS_P1;PMS_P2;Temp;Humidity;BMP_temperature;BMP_pressure;BME280_temperature;BME280_humidity;BME280_pressure;Samples;Min_cycle;Max_cycle;Signal;HPM_P1;HPM_P2
2022/08/09 00:01:48;;;;;;;19.60;13.35;;;;;;;23.02;57.47;95016.13;4992923;28;20168;-76
2022/08/09 00:04:18;;;;;;;12.05;5.35;;;;;;;23.00;57.46;95019.13;5010469;28;20176;-75
2022/08/09 00:06:44;;;;;;;5.63;4.40;;;;;;;22.85;58.10;95022.75;5010371;28;20238;-75
2022/08/09 00:09:11;;;;;;;11.50;5.15;;;;;;;22.80;58.22;95017.44;5012304;28;20206;-75
2022/08/09 00:11:37;;;;;;;9.07;5.15;;;;;;;22.80;58.76;95022.81;5014324;28;20180;-75
2022/08/09 00:14:03;;;;;;;8.77;4.80;;;;;;;22.65;58.72;95003.34;5014253;28;20183;-75
2022/08/09 00:16:29;;;;;;;10.02;5.43;;;;;;;22.74;58.96;95015.06;5014249;28;20172;-75
2022/08/09 00:18:54;;;;;;;8.95;5.28;;;;;;;22.73;59.02;95016.94;5014004;28;20681;-75
2022/08/09 00:21:20;;;;;;;8.82;4.68;;;;;;;22.67;58.41;95020.75;4996365;28;20619;-75
2022/08/09 00:23:45;;;;;;;15.50;4.55;;;;;;;22.63;58.56;95026.97;5014111;28;20184;-75
2022/08/09 00:26:11;;;;;;;6.38;3.72;;;;;;;22.50;58.75;95021.16;5014021;28;20522;-76
2022/08/09 00:28:38;;;;;;;10.95;5.72;;;;;;;22.34;59.05;95008.94;5014122;28;20668;-75
2022/08/09 00:31:04;;;;;;;7.00;4.60;;;;;;;22.32;59.31;95002.25;5014066;28;20588;-75
2022/08/09 00:33:29;;;;;;;10.27;5.20;;;;;;;22.48;59.06;95027.91;5014248;28;20180;-75
2022/08/09 00:35:57;;;;;;;7.97;4.82;;;;;;;22.50;58.94;95023.03;5013853;28;20191;-75
2022/08/09 00:38:23;;;;;;;10.43;3.88;;;;;;;22.44;58.77;95016.13;4996253;28;20897;-75
2022/08/09 00:40:48;;;;;;;7.03;4.68;;;;;;;22.50;59.11;95033.78;5013481;28;20179;-75
2022/08/09 00:43:14;;;;;;;7.30;5.00;;;;;;;22.44;59.19;95032.22;5013460;28;20650;-75
2022/08/09 00:45:39;;;;;;;6.25;4.18;;;;;;;22.27;59.33;95015.72;5013788;28;20687;-75
2022/08/09 00:48:06;;;;;;;14.82;8.07;;;;;;;22.21;60.19;95001.56;5013519;28;20688;-75
2022/08/09 00:50:31;;;;;;;8.00;6.03;;;;;;;22.42;59.65;95035.19;5013509;28;20283;-75
2022/08/09 00:52:57;;;;;;;11.40;5.63;;;;;;;22.36;59.78;95032.81;5013565;28;20330;-75
2022/08/09 00:55:23;;;;;;;6.93;4.43;;;;;;;22.33;59.72;95030.69;5013607;28;20191;-75
2022/08/09 00:57:48;;;;;;;7.82;4.05;;;;;;;22.28;60.28;95028.06;5013313;28;20278;-75
2022/08/09 01:00:14;;;;;;;5.45;4.20;;;;;;;22.25;60.81;95044.69;5013405;28;20728;-75
2022/08/09 01:02:56;;;;;;;6.40;3.90;;;;;;;22.21;60.82;95041.78;5013186;28;20242;-75
2022/08/09 01:05:37;;;;;;;6.63;3.40;;;;;;;22.11;61.00;95042.66;5013505;28;20183;-75
2022/08/09 01:08:27;;;;;;;6.70;4.10;;;;;;;21.98;61.57;95042.44;5013176;28;20175;-75
2022/08/09 01:10:52;;;;;;;10.10;5.50;;;;;;;22.01;62.02;95045.41;5013121;28;20259;-75
2022/08/09 01:13:39;;;;;;;7.82;3.50;;;;;;;22.06;61.63;95047.22;5013043;28;20616;-75
2022/08/09 01:16:08;;;;;;;7.07;4.00;;;;;;;22.03;61.05;95045.91;5013101;28;20661;-75
2022/08/09 01:18:35;;;;;;;3.45;3.00;;;;;;;22.12;61.00;95052.31;5012834;28;20212;-75
2022/08/09 01:21:29;;;;;;;7.03;4.10;;;;;;;22.19;61.01;95047.44;5012033;28;20164;-75
2022/08/09 01:24:09;;;;;;;5.07;3.78;;;;;;;22.23;61.20;95044.97;5013055;28;20596;-75
2022/08/09 01:26:56;;;;;;;5.50;3.45;;;;;;;22.22;60.91;95043.41;5013035;28;20180;-75
2022/08/09 01:29:30;;;;;;;4.57;3.40;;;;;;;22.29;60.63;95038.50;5012983;28;20230;-75
2022/08/09 01:32:00;;;;;;;4.13;3.40;;;;;;;22.23;60.64;95014.69;5012905;28;20208;-75
2022/08/09 01:34:27;;;;;;;3.85;3.42;;;;;;;22.44;60.73;95034.91;5012766;28;20178;-75
2022/08/09 01:36:55;;;;;;;4.53;3.42;;;;;;;22.47;60.32;95034.34;5012758;28;20183;-75
2022/08/09 01:39:22;;;;;;;6.78;4.30;;;;;;;22.36;60.13;95003.31;5012632;28;20204;-75
2022/08/09 01:41:50;;;;;;;5.18;3.38;;;;;;;22.54;60.85;95024.91;5012552;28;20263;-75
2022/08/09 01:44:16;;;;;;;16.33;5.80;;;;;;;22.47;60.64;95026.31;5012427;28;20212;-75
2022/08/09 01:46:44;;;;;;;7.00;3.40;;;;;;;22.29;60.90;94995.59;4994828;28;20180;-75
2022/08/09 01:49:14;;;;;;;8.35;4.43;;;;;;;22.31;61.25;94987.25;5012449;28;20183;-75
2022/08/09 01:51:46;;;;;;;15.82;8.25;;;;;;;22.44;61.12;95002.69;5012400;28;20180;-75
2022/08/09 01:54:14;;;;;;;9.20;6.07;;;;;;;22.49;61.67;94997.28;5012253;28;20183;-75
2022/08/09 01:56:43;;;;;;;9.30;5.85;;;;;;;22.53;61.61;94999.13;5012296;28;20176;-75
2022/08/09 01:59:12;;;;;;;10.32;5.40;;;;;;;22.56;61.49;95008.50;5012268;28;20205;-75
2022/08/09 02:01:40;;;;;;;8.25;5.13;;;;;;;22.59;61.06;95006.06;5012169;28;20183;-75
2022/08/09 02:04:08;;;;;;;18.23;11.35;;;;;;;22.55;61.14;95009.59;5012256;28;20180;-75
2022/08/09 02:09:22;;;;;;;10.88;6.57;;;;;;;22.66;61.01;95011.09;5012182;28;20246;-75
2022/08/09 02:11:48;;;;;;;15.05;8.75;;;;;;;22.70;60.61;95004.09;5006995;28;20180;-75
2022/08/09 02:14:16;;;;;;;15.48;8.60;;;;;;;22.75;59.97;94993.31;5011889;28;20172;-75
2022/08/09 02:16:43;;;;;;;15.40;7.75;;;;;;;22.79;59.79;94996.25;5012047;28;20601;-75
2022/08/09 02:19:09;;;;;;;6.63;4.60;;;;;;;22.79;59.80;94993.56;5011955;28;20243;-75
2022/08/09 02:21:40;;;;;;;8.65;6.18;;;;;;;22.80;59.97;94993.28;5011992;28;20212;-75
2022/08/09 02:24:10;;;;;;;8.27;4.38;;;;;;;22.79;59.49;94998.94;5012259;28;20212;-75
2022/08/09 02:26:38;;;;;;;8.98;5.90;;;;;;;22.81;59.33;95002.13;5011601;28;20243;-75
2022/08/09 02:29:24;;;;;;;7.95;3.85;;;;;;;22.72;59.58;94988.50;5011836;28;20176;-75
2022/08/09 02:31:54;;;;;;;10.32;4.38;;;;;;;22.78;59.97;95000.81;5011415;28;20643;-75
2022/08/09 02:34:25;;;;;;;8.98;3.85;;;;;;;22.81;60.03;95007.50;5011785;28;20172;-75
2022/08/09 02:36:53;;;;;;;5.40;3.75;;;;;;;22.79;59.73;95010.47;5011827;28;20172;-76
2022/08/09 02:39:23;;;;;;;7.68;3.72;;;;;;;22.59;59.33;95015.97;5011599;28;20203;-75
2022/08/09 02:42:15;;;;;;;4.35;3.80;;;;;;;22.50;60.45;95023.03;5011640;28;20587;-76
2022/08/09 02:44:45;;;;;;;5.38;3.22;;;;;;;22.35;60.96;95015.91;5012004;28;20684;-76
2022/08/09 02:47:13;;;;;;;5.57;3.90;;;;;;;22.46;60.45;95022.00;5011872;28;20199;-76
2022/08/09 02:49:45;;;;;;;6.05;3.55;;;;;;;22.49;60.18;95013.38;5011671;28;20176;-76
2022/08/09 02:52:14;;;;;;;4.25;3.67;;;;;;;22.49;60.59;95016.88;5011451;28;20181;-76
2022/08/09 02:54:41;;;;;;;7.50;3.97;;;;;;;22.33;60.80;95015.38;5011426;28;20180;-76
2022/08/09 02:57:10;;;;;;;6.85;3.70;;;;;;;22.32;60.19;95023.72;5011427;28;20176;-76
2022/08/09 02:59:38;;;;;;;9.55;3.95;;;;;;;22.38;60.18;95022.63;5011546;28;20636;-76
2022/08/09 03:02:06;;;;;;;4.90;3.45;;;;;;;22.45;60.06;95017.72;5011280;28;20264;-76
2022/08/09 03:04:32;;;;;;;9.93;3.40;;;;;;;22.39;60.34;95002.75;4993614;28;20543;-76
2022/08/09 03:07:01;;;;;;;4.97;3.72;;;;;;;22.40;60.23;95010.50;5011614;28;20674;-76
2022/08/09 03:09:27;;;;;;;6.80;3.60;;;;;;;22.45;60.73;95018.53;5011326;28;20175;-76
2022/08/09 03:11:53;;;;;;;6.32;3.97;;;;;;;22.35;60.86;95002.50;5011197;28;20183;-76
2022/08/09 03:14:19;;;;;;;7.13;4.40;;;;;;;22.53;60.74;95025.97;5011339;28;20172;-76
2022/08/09 03:16:46;;;;;;;4.88;3.33;;;;;;;22.51;60.59;95024.66;5011137;28;20609;-76
2022/08/09 03:19:13;;;;;;;6.95;3.60;;;;;;;22.38;60.88;95006.53;5011125;28;20204;-76
2022/08/09 03:21:40;;;;;;;8.63;4.63;;;;;;;22.31;61.32;95017.56;5011090;28;20180;-76
2022/08/09 03:24:06;;;;;;;7.63;4.40;;;;;;;22.28;61.24;95025.38;5011031;28;20563;-76
2022/08/09 03:26:32;;;;;;;8.73;4.22;;;;;;;22.20;62.02;95024.91;5010965;28;20191;-76
2022/08/09 03:28:58;;;;;;;8.38;4.43;;;;;;;22.25;61.87;95026.72;5010797;28;20173;-76
2022/08/09 03:31:25;;;;;;;13.57;5.18;;;;;;;21.97;62.27;94993.38;5010916;28;20215;-76
2022/08/09 03:33:52;;;;;;;7.88;3.90;;;;;;;22.09;62.27;95022.53;5010715;28;20176;-76
2022/08/09 03:36:17;;;;;;;8.00;4.18;;;;;;;22.08;62.64;95021.75;5010445;28;20176;-76
2022/08/09 03:38:43;;;;;;;7.40;4.10;;;;;;;22.04;62.75;95026.06;5010005;28;20210;-76
2022/08/09 03:41:13;;;;;;;6.60;4.28;;;;;;;22.03;63.16;95034.41;5007185;28;20184;-76
2022/08/09 03:43:39;;;;;;;10.88;5.57;;;;;;;21.97;62.88;95038.97;5017001;28;20673;-77
2022/08/09 03:46:05;;;;;;;19.52;11.77;;;;;;;21.84;62.99;95018.91;5018637;28;20179;-77
2022/08/09 03:48:32;;;;;;;17.92;11.00;;;;;;;21.92;63.29;95036.31;5017453;28;20649;-77
2022/08/09 03:50:59;;;;;;;14.43;8.18;;;;;;;21.84;63.48;95028.84;5019916;28;20179;-76
2022/08/09 03:53:25;;;;;;;18.38;11.13;;;;;;;21.83;63.55;95035.28;5009605;28;20184;-75
2022/08/09 03:55:51;;;;;;;24.52;15.98;;;;;;;21.74;63.73;95035.06;4992971;28;20257;-75
2022/08/09 03:58:17;;;;;;;16.85;9.30;;;;;;;21.74;63.83;95039.63;5015104;28;20242;-75
2022/08/09 04:00:47;;;;;;;13.07;7.20;;;;;;;21.68;63.80;95040.72;5009826;28;20180;-75
2022/08/09 04:03:14;;;;;;;13.57;6.15;;;;;;;21.63;64.19;95038.06;5010741;28;20180;-75
2022/08/09 04:05:40;;;;;;;9.32;5.30;;;;;;;21.63;64.73;95036.16;5017550;28;20191;-75
2022/08/09 04:08:06;;;;;;;10.93;5.20;;;;;;;21.67;64.82;95037.25;5020721;28;20176;-75
2022/08/09 04:10:31;;;;;;;6.88;4.60;;;;;;;21.59;64.62;95032.47;4999513;28;20173;-77
2022/08/09 04:13:08;;;;;;;9.63;4.10;;;;;;;21.51;65.18;95038.38;5018948;28;20180;-77
2022/08/09 04:15:34;;;;;;;11.40;6.95;;;;;;;21.74;64.55;95042.28;5027627;28;20179;-77
2022/08/09 04:18:00;;;;;;;11.00;6.13;;;;;;;21.97;64.41;95038.13;5016875;28;20387;-77
2022/08/09 04:20:25;;;;;;;13.07;5.88;;;;;;;22.18;64.11;95045.00;5020980;28;20176;-77
2022/08/09 04:22:50;;;;;;;20.52;10.00;;;;;;;22.23;62.58;95033.47;5025319;28;20182;-77
2022/08/09 04:25:16;;;;;;;14.50;7.90;;;;;;;22.40;62.28;95045.38;5020580;28;20232;-77
2022/08/09 04:27:41;;;;;;;12.43;7.85;;;;;;;22.41;62.04;95032.78;5018620;28;20210;-79
2022/08/09 04:30:13;;;;;;;9.95;6.18;;;;;;;22.66;61.56;95045.97;5017359;28;20176;-79
2022/08/09 04:32:39;;;;;;;11.05;4.63;;;;;;;22.81;61.72;95039.72;5013533;28;20184;-76
2022/08/09 04:35:07;;;;;;;10.85;4.95;;;;;;;23.14;62.06;95054.16;5016983;28;20208;-78
2022/08/09 04:37:33;;;;;;;5.95;3.47;;;;;;;23.30;60.86;95051.03;5017359;28;20195;-77
2022/08/09 04:39:59;;;;;;;7.63;4.82;;;;;;;23.43;60.64;95046.06;5016396;28;20542;-77
2022/08/09 04:42:28;;;;;;;14.23;4.80;;;;;;;23.64;60.17;95059.00;5016879;28;20203;-78
2022/08/09 04:44:58;;;;;;;12.35;4.82;;;;;;;23.79;58.88;95059.88;5012040;28;20583;-76
2022/08/09 04:47:24;;;;;;;12.18;4.53;;;;;;;23.83;59.07;95039.41;5014799;28;20184;-76
2022/08/09 04:49:50;;;;;;;11.13;5.32;;;;;;;24.12;57.63;95068.88;5016646;28;20550;-78
2022/08/09 04:52:16;;;;;;;11.60;5.28;;;;;;;24.51;57.56;95061.31;5016680;28;20193;-77
2022/08/09 04:54:42;;;;;;;18.52;4.65;;;;;;;25.22;56.61;95079.03;5015218;28;20596;-77
2022/08/09 04:57:07;;;;;;;8.05;5.18;;;;;;;25.99;53.94;95075.66;5013322;28;20554;-77
2022/08/09 04:59:33;;;;;;;11.73;4.68;;;;;;;26.68;50.95;95075.19;5013747;28;20208;-77
2022/08/09 05:01:58;;;;;;;9.05;3.95;;;;;;;27.37;49.35;95078.34;5012794;28;20243;-77
2022/08/09 05:04:24;;;;;;;6.10;3.95;;;;;;;27.95;47.58;95062.97;4993867;28;20184;-77
2022/08/09 05:06:49;;;;;;;8.07;4.22;;;;;;;28.71;45.70;95087.78;5012847;28;20207;-77
2022/08/09 05:09:15;;;;;;;5.72;3.40;;;;;;;29.33;44.34;95088.19;5012878;28;20176;-77
2022/08/09 05:11:41;;;;;;;7.10;3.92;;;;;;;29.90;43.18;95088.63;5012781;28;20712;-77
2022/08/09 05:14:07;;;;;;;6.63;3.78;;;;;;;30.55;42.22;95083.78;5012661;28;20177;-77
2022/08/09 05:16:35;;;;;;;8.75;4.07;;;;;;;31.10;40.39;95087.03;5012757;28;20235;-77
2022/08/09 05:19:00;;;;;;;5.50;3.90;;;;;;;31.74;39.64;95088.44;5013260;28;20227;-78
2022/08/09 05:21:27;;;;;;;5.85;4.18;;;;;;;32.39;37.45;95079.25;4995433;28;20180;-75
2022/08/09 05:23:53;;;;;;;10.02;3.88;;;;;;;32.92;37.05;95090.94;5013030;28;20657;-75
2022/08/09 05:26:19;;;;;;;4.55;3.50;;;;;;;33.38;35.69;95100.44;5012794;28;20241;-75
2022/08/09 05:28:45;;;;;;;7.95;3.55;;;;;;;33.91;34.89;95087.34;5013069;28;20263;-75
2022/08/09 05:31:12;;;;;;;14.43;4.13;;;;;;;34.29;33.83;95098.44;4994910;28;20678;-75
2022/08/09 05:33:37;;;;;;;8.50;4.05;;;;;;;34.57;33.02;95097.50;5012075;28;20183;-75
2022/08/09 05:36:03;;;;;;;8.75;4.45;;;;;;;34.69;32.73;95076.25;5011985;28;20175;-75
2022/08/09 05:38:30;;;;;;;9.60;4.57;;;;;;;35.24;32.19;95098.94;5013073;28;20557;-75
2022/08/09 05:40:56;;;;;;;8.63;4.00;;;;;;;35.68;31.85;95093.88;5013037;28;20168;-78
2022/08/09 05:43:21;;;;;;;6.10;3.90;;;;;;;36.05;31.32;95096.88;5012891;28;20268;-76
2022/08/09 05:45:46;;;;;;;9.38;4.32;;;;;;;36.28;30.28;95099.59;5006404;28;20650;-75
2022/08/09 05:48:12;;;;;;;11.60;4.10;;;;;;;36.62;30.44;95100.47;5012854;28;20203;-75
2022/08/09 05:50:40;;;;;;;7.45;3.90;;;;;;;37.12;29.46;95092.91;5012562;28;20578;-77
2022/08/09 05:53:06;;;;;;;12.40;4.68;;;;;;;37.53;28.26;95096.53;5011194;28;20644;-77
2022/08/09 05:55:32;;;;;;;7.63;3.78;;;;;;;37.70;28.04;95093.19;5013064;28;20182;-77
2022/08/09 05:57:58;;;;;;;8.18;3.70;;;;;;;37.31;28.41;95051.53;5012916;28;20588;-77
2022/08/09 06:00:28;;;;;;;6.57;3.72;;;;;;;37.54;27.82;95101.63;5012899;28;20870;-77
2022/08/09 06:02:55;;;;;;;9.65;4.85;;;;;;;37.54;28.63;95098.09;5014807;28;20267;-77
2022/08/09 06:05:24;;;;;;;6.13;4.20;;;;;;;37.31;28.22;95090.81;5012608;28;20177;-77
2022/08/09 06:07:50;;;;;;;6.97;4.53;;;;;;;37.17;28.32;95082.41;5012334;28;20874;-77
2022/08/09 06:10:15;;;;;;;10.43;4.05;;;;;;;36.98;28.59;95094.31;5014717;28;20242;-77
2022/08/09 06:12:41;;;;;;;7.45;4.00;;;;;;;36.96;28.64;95082.91;5014939;28;20226;-77
2022/08/09 06:15:07;;;;;;;6.75;3.60;;;;;;;36.84;28.36;95076.91;5021204;28;20176;-77
2022/08/09 06:17:33;;;;;;;9.52;5.18;;;;;;;36.22;29.73;95084.63;5012650;28;20249;-77
2022/08/09 06:19:58;;;;;;;7.13;4.38;;;;;;;35.76;30.66;95084.66;5012584;28;20185;-78
2022/08/09 06:22:23;;;;;;;9.80;6.82;;;;;;;35.46;31.16;95086.44;5012372;28;20180;-78
2022/08/09 06:24:49;;;;;;;6.57;4.07;;;;;;;35.55;31.70;95092.44;5013262;28;20176;-78
2022/08/09 06:27:14;;;;;;;6.30;3.95;;;;;;;34.97;31.28;95086.22;5012954;28;20259;-78
2022/08/09 06:29:40;;;;;;;6.10;3.63;;;;;;;34.49;32.67;95098.50;5012509;28;20219;-78
2022/08/09 06:32:06;;;;;;;7.45;3.72;;;;;;;34.35;33.16;95083.34;5012335;28;20295;-77
2022/08/09 06:34:31;;;;;;;6.00;3.75;;;;;;;34.50;33.25;95097.34;5011870;28;20185;-77
2022/08/09 06:36:57;;;;;;;9.85;3.97;;;;;;;34.33;33.00;95079.38;5011954;28;20183;-77
2022/08/09 06:39:22;;;;;;;7.68;3.42;;;;;;;34.36;32.91;95086.84;5011814;28;20212;-76
2022/08/09 06:41:48;;;;;;;7.57;4.15;;;;;;;34.23;32.82;95094.38;5011690;28;20333;-76
2022/08/09 06:44:13;;;;;;;8.35;3.65;;;;;;;34.28;32.40;95085.91;5011178;28;20181;-77
2022/08/09 06:46:40;;;;;;;7.32;4.90;;;;;;;34.05;33.11;95085.75;5011671;28;20184;-76
2022/08/09 06:49:05;;;;;;;7.93;4.13;;;;;;;33.93;33.87;95083.09;5011586;28;20183;-76
2022/08/09 06:51:32;;;;;;;20.10;3.72;;;;;;;33.79;33.56;95081.97;5011704;28;20661;-77
2022/08/09 06:53:58;;;;;;;8.35;3.78;;;;;;;33.78;33.14;95083.91;5011331;28;20273;-76
2022/08/09 06:56:23;;;;;;;8.35;3.70;;;;;;;33.56;34.30;95081.75;5011388;28;20935;-77
2022/08/09 06:58:48;;;;;;;6.55;3.50;;;;;;;33.77;34.61;95082.31;5011172;28;20614;-76
2022/08/09 07:01:14;;;;;;;9.18;3.95;;;;;;;34.02;33.20;95083.72;5011726;28;20188;-77
2022/08/09 07:03:39;;;;;;;6.07;3.40;;;;;;;34.18;33.77;95091.09;5011283;28;20422;-77
2022/08/09 07:06:05;;;;;;;9.30;4.35;;;;;;;33.96;33.27;95063.28;5011495;28;20200;-77
2022/08/09 07:08:32;;;;;;;6.82;3.33;;;;;;;33.90;32.56;95083.84;5011118;28;20186;-77
2022/08/09 07:10:58;;;;;;;11.68;4.22;;;;;;;33.70;33.22;95084.84;5011013;28;20203;-77
2022/08/09 07:13:23;;;;;;;11.40;3.40;;;;;;;33.38;33.59;95078.59;5016740;28;20679;-76
2022/08/09 07:15:49;;;;;;;8.57;3.85;;;;;;;33.27;34.21;95072.84;5011824;28;20184;-76
2022/08/09 07:18:14;;;;;;;5.68;3.38;;;;;;;33.55;33.99;95080.97;5010106;28;20770;-76
2022/08/09 07:20:40;;;;;;;9.27;3.80;;;;;;;33.86;33.47;95076.69;5011966;28;20187;-76
2022/08/09 07:23:05;;;;;;;7.05;3.28;;;;;;;34.14;33.79;95066.44;5010274;28;20180;-76
2022/08/09 07:25:31;;;;;;;9.13;3.55;;;;;;;34.16;32.13;95085.22;5010722;28;20184;-76
2022/08/09 07:27:56;;;;;;;8.13;3.20;;;;;;;34.14;32.69;95074.63;5007453;28;20588;-76
2022/08/09 07:30:21;;;;;;;6.55;3.72;;;;;;;34.14;32.55;95084.78;5010262;28;20220;-76
2022/08/09 07:32:47;;;;;;;8.30;3.80;;;;;;;34.07;32.35;95078.00;5010630;28;20887;-76
2022/08/09 07:35:13;;;;;;;10.70;3.72;;;;;;;33.64;32.52;95076.13;5006354;28;20172;-76
2022/08/09 07:37:41;;;;;;;7.05;4.18;;;;;;;33.27;33.58;95081.03;5010362;28;20188;-76
2022/08/09 07:40:07;;;;;;;4.45;3.22;;;;;;;33.27;33.42;95072.84;5009877;28;20212;-76
2022/08/09 07:42:32;;;;;;;4.35;3.13;;;;;;;33.09;34.31;95044.25;5010215;28;20247;-76
2022/08/09 07:44:58;;;;;;;4.85;3.00;;;;;;;33.81;34.04;95079.69;5009805;28;20653;-76
2022/08/09 07:47:24;;;;;;;9.35;3.42;;;;;;;34.19;32.31;95068.09;5010324;28;20597;-76
2022/08/09 07:49:50;;;;;;;6.85;2.92;;;;;;;34.48;31.10;95075.03;5010324;28;20180;-76
2022/08/09 07:52:15;;;;;;;6.55;3.75;;;;;;;34.41;32.34;95075.66;5010326;28;20181;-76
2022/08/09 07:54:41;;;;;;;6.78;3.20;;;;;;;33.96;31.03;95073.41;5010405;28;20183;-76
2022/08/09 07:57:07;;;;;;;9.43;2.88;;;;;;;34.10;33.13;95068.28;5010995;28;20180;-76
2022/08/09 07:59:32;;;;;;;6.13;3.10;;;;;;;34.41;30.72;95059.25;5010519;28;20188;-76
2022/08/09 08:01:58;;;;;;;5.93;3.30;;;;;;;35.00;30.72;95075.38;5010411;28;20238;-76
2022/08/09 08:04:23;;;;;;;8.75;3.28;;;;;;;35.17;30.83;95068.66;5010364;28;20550;-76
2022/08/09 08:06:49;;;;;;;6.05;3.17;;;;;;;35.41;29.55;95071.09;5011180;28;20641;-78
2022/08/09 08:09:16;;;;;;;5.43;2.70;;;;;;;35.59;30.07;95056.91;5010946;28;20641;-78
2022/08/09 08:11:42;;;;;;;13.43;3.38;;;;;;;35.61;30.28;95076.53;5010961;28;20184;-76
2022/08/09 08:14:07;;;;;;;5.82;3.10;;;;;;;35.66;29.46;95063.28;5010302;28;20180;-76
2022/08/09 08:16:33;;;;;;;3.40;3.10;;;;;;;35.73;28.96;95057.16;5014810;28;20271;-76
2022/08/09 08:18:59;;;;;;;4.28;2.60;;;;;;;34.33;29.58;95057.50;5011384;28;20215;-76
2022/08/09 08:21:24;;;;;;;3.90;3.30;;;;;;;33.92;30.48;95062.38;5010841;28;20184;-76
2022/08/09 08:23:50;;;;;;;5.20;2.97;;;;;;;33.58;30.79;95050.22;5010770;28;20188;-76
2022/08/09 08:26:15;;;;;;;3.05;2.70;;;;;;;33.52;30.61;95053.56;5010101;28;20279;-76
2022/08/09 08:28:41;;;;;;;6.32;2.70;;;;;;;33.46;30.84;95055.78;5010764;28;20356;-76
2022/08/09 08:31:06;;;;;;;11.45;3.42;;;;;;;33.20;31.92;95048.06;5016242;28;20322;-75
2022/08/09 08:33:32;;;;;;;6.28;3.17;;;;;;;33.15;32.79;95053.75;5014924;28;20211;-77
2022/08/09 08:35:57;;;;;;;7.30;3.08;;;;;;;33.41;30.39;95044.31;5013645;28;20176;-77
2022/08/09 08:38:23;;;;;;;10.32;2.72;;;;;;;33.75;31.30;95040.09;5015340;28;20220;-77
2022/08/09 08:40:49;;;;;;;6.38;3.75;;;;;;;33.70;29.33;95032.94;5014072;28;20180;-76
2022/08/09 08:43:15;;;;;;;8.20;2.90;;;;;;;33.66;29.61;95041.03;5012697;28;20692;-77
2022/08/09 08:45:50;;;;;;;7.57;3.38;;;;;;;33.68;29.16;95033.31;5011529;28;20275;-77
2022/08/09 08:48:16;;;;;;;6.82;2.42;;;;;;;33.77;28.30;95033.16;5011975;28;20175;-76
2022/08/09 08:50:41;;;;;;;3.03;2.50;;;;;;;33.53;28.70;95025.91;5012660;28;20649;-76
2022/08/09 08:53:07;;;;;;;4.78;2.67;;;;;;;33.59;29.18;95029.94;5011644;28;20180;-76
2022/08/09 08:55:34;;;;;;;3.85;3.13;;;;;;;33.32;28.39;95033.56;5012761;28;20664;-76
2022/08/09 08:57:59;;;;;;;4.53;2.60;;;;;;;32.91;28.69;95004.75;5012641;28;20201;-76
2022/08/09 09:00:30;;;;;;;4.78;2.55;;;;;;;33.38;28.12;95023.19;5010892;28;20238;-76
2022/08/09 09:03:00;;;;;;;6.80;2.65;;;;;;;33.65;29.09;95019.53;5006608;28;20641;-76
2022/08/09 09:05:26;;;;;;;6.55;2.83;;;;;;;33.61;28.94;95011.28;5011115;28;20210;-76
2022/08/09 09:07:52;;;;;;;4.38;2.60;;;;;;;34.07;28.49;95001.47;5010452;28;20608;-77
2022/08/09 09:10:18;;;;;;;2.60;2.40;;;;;;;34.20;27.48;95013.06;5011945;28;20180;-76
2022/08/09 09:12:45;;;;;;;8.23;2.63;;;;;;;34.15;26.35;95009.81;5011967;28;20187;-77
2022/08/09 09:15:11;;;;;;;2.40;2.10;;;;;;;33.89;26.26;94994.00;5012244;28;20539;-76
2022/08/09 09:17:37;;;;;;;4.35;2.10;;;;;;;33.77;25.22;95014.03;5012167;28;20271;-77
2022/08/09 09:20:07;;;;;;;10.35;1.77;;;;;;;33.57;23.20;94990.47;5012296;28;20180;-76
2022/08/09 09:22:56;;;;;;;5.05;1.85;;;;;;;33.88;21.24;95011.53;5012023;28;20176;-77
2022/08/09 09:25:42;;;;;;;4.15;2.00;;;;;;;33.53;23.28;95006.00;5012375;28;20723;-77
2022/08/09 09:28:10;;;;;;;2.88;1.70;;;;;;;33.44;24.09;94999.91;4994490;28;20219;-77
2022/08/09 09:30:53;;;;;;;3.47;1.85;;;;;;;33.31;22.21;94988.28;5012070;28;20278;-76
2022/08/09 09:33:18;;;;;;;2.65;2.17;;;;;;;33.33;23.35;94977.81;5012231;28;20207;-76
2022/08/09 09:35:56;;;;;;;6.15;1.92;;;;;;;33.63;23.98;94983.63;4994371;28;20215;-77
2022/08/09 09:38:22;;;;;;;1.90;1.58;;;;;;;33.70;23.11;94991.97;5012009;28;20200;-77
2022/08/09 09:40:48;;;;;;;5.28;1.95;;;;;;;33.34;23.21;94980.19;5011686;28;20184;-76
2022/08/09 09:43:18;;;;;;;2.33;1.90;;;;;;;33.35;24.39;94975.53;5011825;28;20564;-76
2022/08/09 09:46:02;;;;;;;3.55;1.80;;;;;;;33.53;22.65;94984.94;5011845;28;20212;-77
2022/08/09 09:48:28;;;;;;;1.42;1.30;;;;;;;33.51;21.41;94984.50;5012301;28;20177;-76
2022/08/09 09:50:54;;;;;;;6.40;2.22;;;;;;;33.45;21.52;94985.91;5011824;28;20176;-76
2022/08/09 09:53:24;;;;;;;3.40;1.73;;;;;;;33.28;20.82;94981.59;5011795;28;20172;-77
2022/08/09 09:55:50;;;;;;;2.72;1.92;;;;;;;33.08;21.94;94981.81;5011648;28;20188;-76
2022/08/09 09:58:15;;;;;;;3.78;1.70;;;;;;;32.50;22.96;94986.84;5011813;28;20258;-76
2022/08/09 10:00:47;;;;;;;8.27;1.92;;;;;;;32.26;23.02;94984.97;5011091;28;20637;-76
2022/08/09 10:03:12;;;;;;;4.47;2.00;;;;;;;31.66;23.60;94975.75;5011668;28;20212;-76
2022/08/09 10:05:59;;;;;;;2.92;1.80;;;;;;;31.64;23.55;94974.53;5012108;28;20204;-76
2022/08/09 10:08:24;;;;;;;3.13;2.15;;;;;;;31.41;24.23;94969.50;5004483;28;20180;-76
2022/08/09 10:10:50;;;;;;;4.10;1.90;;;;;;;31.58;23.45;94975.84;5012462;28;20598;-76
2022/08/09 10:13:17;;;;;;;1.90;1.45;;;;;;;31.77;23.70;94978.81;5011981;28;20649;-76
2022/08/09 10:15:48;;;;;;;3.10;1.50;;;;;;;31.93;22.70;94982.41;5011805;28;20176;-77
2022/08/09 10:18:13;;;;;;;2.47;1.80;;;;;;;31.87;23.13;94967.47;5012328;28;20219;-76
2022/08/09 10:20:39;;;;;;;4.25;1.63;;;;;;;31.99;22.40;94972.09;5011916;28;20176;-76
2022/08/09 10:23:19;;;;;;;4.18;2.10;;;;;;;32.25;23.45;94967.06;5012064;28;20191;-76
2022/08/09 10:25:45;;;;;;;2.58;1.63;;;;;;;32.48;23.30;94970.03;5012327;28;20177;-76
2022/08/09 10:28:12;;;;;;;3.10;1.50;;;;;;;32.69;22.09;94981.59;5011915;28;20575;-75
2022/08/09 10:30:37;;;;;;;3.70;1.73;;;;;;;32.57;23.17;94971.47;5011757;28;20228;-76
2022/08/09 10:33:03;;;;;;;3.45;1.80;;;;;;;32.27;22.21;94963.97;5011444;28;20184;-76
2022/08/09 10:35:30;;;;;;;2.95;1.30;;;;;;;32.20;21.93;94972.75;5011018;28;20183;-76
2022/08/09 10:37:59;;;;;;;6.28;1.98;;;;;;;32.23;24.07;94958.44;5011574;28;20250;-76
2022/08/09 10:40:25;;;;;;;17.25;2.38;;;;;;;32.13;24.52;94945.25;5011468;28;20184;-76
2022/08/09 10:42:50;;;;;;;5.60;1.70;;;;;;;32.18;22.68;94969.56;5011581;28;20172;-76
2022/08/09 10:45:16;;;;;;;5.25;1.77;;;;;;;32.05;22.49;94968.78;5011516;28;20542;-76
2022/08/09 10:48:10;;;;;;;5.25;1.83;;;;;;;32.15;22.03;94975.69;5011416;28;20203;-76
2022/08/09 10:53:36;;;;;;;2.17;1.50;;;;;;;31.79;21.89;94958.28;5008231;28;20192;-76
2022/08/09 10:56:22;;;;;;;5.13;2.15;;;;;;;31.96;21.31;94964.59;5010056;28;20188;-76
2022/08/09 10:58:49;;;;;;;7.75;1.40;;;;;;;31.73;21.14;94954.22;5010708;28;20291;-76
2022/08/09 11:01:36;;;;;;;3.72;2.28;;;;;;;31.64;21.84;94920.88;5011338;28;20191;-76
2022/08/09 11:04:07;;;;;;;2.20;1.40;;;;;;;32.00;20.61;94971.72;5010840;28;20184;-76
2022/08/09 11:06:34;;;;;;;3.22;1.55;;;;;;;32.08;19.89;94964.59;5011342;28;20180;-76
2022/08/09 11:09:00;;;;;;;4.93;1.60;;;;;;;32.03;20.18;94968.31;5011318;28;20181;-76
2022/08/09 11:11:56;;;;;;;2.78;1.48;;;;;;;32.02;19.97;94966.75;5011198;28;20226;-76
2022/08/09 11:14:53;;;;;;;2.80;1.30;;;;;;;31.68;21.21;94967.25;5011356;28;20188;-75
2022/08/09 11:17:19;;;;;;;4.30;1.95;;;;;;;31.57;21.58;94961.44;5011283;28;20180;-76
2022/08/09 11:19:58;;;;;;;3.65;1.90;;;;;;;31.69;22.78;94947.06;5010888;28;20206;-76
2022/08/09 11:22:39;;;;;;;7.43;2.70;;;;;;;31.85;23.21;94961.56;5011445;28;20226;-76
2022/08/09 11:25:21;;;;;;;3.95;2.05;;;;;;;31.35;24.32;94948.28;5011283;28;20179;-76
2022/08/09 11:27:55;;;;;;;3.95;1.83;;;;;;;31.11;24.07;94916.44;5011451;28;20184;-76
2022/08/09 11:30:25;;;;;;;3.05;2.05;;;;;;;31.42;24.43;94943.06;5010961;28;20775;-77
2022/08/09 11:33:21;;;;;;;2.60;2.03;;;;;;;31.34;24.65;94946.69;4993362;28;20267;-76
2022/08/09 11:35:56;;;;;;;2.97;1.85;;;;;;;31.36;24.90;94947.94;5011088;28;20641;-76
2022/08/09 11:38:23;;;;;;;5.72;1.77;;;;;;;31.44;23.69;94925.28;5010884;28;20216;-76
2022/08/09 11:40:50;;;;;;;4.18;2.28;;;;;;;31.64;23.79;94952.75;5014661;28;20200;-76
2022/08/09 11:43:25;;;;;;;6.07;2.22;;;;;;;31.69;23.79;94936.16;5010306;28;20180;-76